This is the latest recevied weather packets stored in our database for station/object WD7CGF. If no packets are shown the sender has not sent any weather packets the latest 10 day(s).
| Time | Temp. | Humidity | Pressure | Rain* | Wind** | Luminosity | Snow |
|---|---|---|---|---|---|---|---|
| 1777301918 | 7.78° C | 64% | 1012.7 hPa | 0 mm | - | - | - |
| 1777301322 | 7.22° C | 66% | 1012.7 hPa | 0 mm | - | - | - |
| 1777300709 | 6.11° C | 67% | 1012.8 hPa | 0 mm | - | - | - |
| 1777300116 | 5° C | 72% | 1012.1 hPa | 0 mm | - | - | - |
| 1777299522 | 3.89° C | 75% | 1012.1 hPa | 0 mm | - | - | - |
| 1777298915 | 2.22° C | 79% | 1011.9 hPa | 0 mm | - | - | - |
| 1777298323 | 1.67° C | 80% | 1011.9 hPa | 0 mm | - | - | - |
| 1777297707 | 1.11° C | 79% | 1011.9 hPa | 0 mm | - | - | - |
| 1777297114 | 1.11° C | 80% | 1011.7 hPa | 0 mm | - | - | - |
| 1777296522 | 1.11° C | 80% | 1011.5 hPa | 0 mm | - | - | - |
| 1777295926 | 1.11° C | 80% | 1011.5 hPa | 0 mm | - | - | - |
| 1777295313 | 1.11° C | 80% | 1011.3 hPa | 0 mm | - | - | - |
| 1777294712 | 1.11° C | 80% | 1011.3 hPa | 0 mm | - | - | - |
| 1777294117 | 1.11° C | 79% | 1011.3 hPa | 0 mm | - | - | - |
| 1777293522 | 1.67° C | 79% | 1011.9 hPa | 0 mm | - | - | - |
| 1777292924 | 1.67° C | 78% | 1012 hPa | 0 mm | - | - | - |
| 1777292308 | 2.22° C | 77% | 1012 hPa | 0 mm | - | - | - |
| 1777291714 | 2.22° C | 76% | 1011.6 hPa | 0 mm | - | - | - |
| 1777291124 | 2.78° C | 76% | 1011.6 hPa | 0 mm | - | - | - |
| 1777290514 | 2.78° C | 76% | 1011.6 hPa | 0 mm | - | - | - |
| 1777289322 | 2.78° C | 77% | 1011.5 hPa | 0 mm | - | - | - |
| 1777288710 | 2.78° C | 77% | 1011.5 hPa | 0 mm | - | - | - |
| 1777288116 | 2.78° C | 77% | 1011.2 hPa | 0 mm | - | - | - |
| 1777287516 | 2.78° C | 75% | 1010.9 hPa | 0 mm | - | - | - |
| 1777286920 | 3.33° C | 75% | 1010.9 hPa | 0 mm | - | - | - |
* Rain since midnight (hover to see other rain measurements)
** Current wind speed in m/s (hover to see current wind gust speed)